sensor_id;sensor_type;location;lat;lon;timestamp;P1;durP1;ratioP1;P2;durP2;ratioP2
75488;SDS011;64069;46.396;48.102;2023-03-12T00:02:00;10.98;;;4.25;;
75488;SDS011;64069;46.396;48.102;2023-03-12T00:04:27;8.75;;;4.22;;
75488;SDS011;64069;46.396;48.102;2023-03-12T00:06:53;9.43;;;4.38;;
75488;SDS011;64069;46.396;48.102;2023-03-12T00:09:19;8.93;;;3.70;;
75488;SDS011;64069;46.396;48.102;2023-03-12T00:11:45;9.20;;;3.67;;
75488;SDS011;64069;46.396;48.102;2023-03-12T00:14:10;8.80;;;3.80;;
75488;SDS011;64069;46.396;48.102;2023-03-12T00:16:36;10.50;;;4.10;;
75488;SDS011;64069;46.396;48.102;2023-03-12T00:19:02;9.30;;;3.65;;
75488;SDS011;64069;46.396;48.102;2023-03-12T00:21:28;10.80;;;4.43;;
75488;SDS011;64069;46.396;48.102;2023-03-12T00:23:54;8.75;;;3.75;;
75488;SDS011;64069;46.396;48.102;2023-03-12T00:26:20;10.88;;;3.90;;
75488;SDS011;64069;46.396;48.102;2023-03-12T00:28:47;10.32;;;3.92;;
75488;SDS011;64069;46.396;48.102;2023-03-12T00:31:18;9.30;;;3.70;;
75488;SDS011;64069;46.396;48.102;2023-03-12T00:33:51;9.18;;;3.55;;
75488;SDS011;64069;46.396;48.102;2023-03-12T00:36:18;11.32;;;4.40;;
75488;SDS011;64069;46.396;48.102;2023-03-12T00:38:45;10.07;;;3.05;;
75488;SDS011;64069;46.396;48.102;2023-03-12T00:41:11;9.48;;;4.13;;
75488;SDS011;64069;46.396;48.102;2023-03-12T00:43:37;14.50;;;4.63;;
75488;SDS011;64069;46.396;48.102;2023-03-12T00:46:04;9.82;;;4.53;;
75488;SDS011;64069;46.396;48.102;2023-03-12T00:48:30;10.13;;;3.55;;
75488;SDS011;64069;46.396;48.102;2023-03-12T00:50:55;8.30;;;3.22;;
75488;SDS011;64069;46.396;48.102;2023-03-12T00:53:21;8.88;;;3.22;;
75488;SDS011;64069;46.396;48.102;2023-03-12T00:55:47;8.40;;;3.78;;
75488;SDS011;64069;46.396;48.102;2023-03-12T00:58:13;10.90;;;3.83;;
75488;SDS011;64069;46.396;48.102;2023-03-12T01:00:39;9.30;;;4.07;;
75488;SDS011;64069;46.396;48.102;2023-03-12T01:03:05;8.07;;;3.50;;
75488;SDS011;64069;46.396;48.102;2023-03-12T01:05:31;7.78;;;3.28;;
75488;SDS011;64069;46.396;48.102;2023-03-12T01:08:03;8.55;;;3.03;;
75488;SDS011;64069;46.396;48.102;2023-03-12T01:10:29;8.32;;;3.20;;
75488;SDS011;64069;46.396;48.102;2023-03-12T01:12:55;7.03;;;3.33;;
75488;SDS011;64069;46.396;48.102;2023-03-12T01:15:21;13.43;;;3.95;;
75488;SDS011;64069;46.396;48.102;2023-03-12T01:17:47;7.95;;;3.35;;
75488;SDS011;64069;46.396;48.102;2023-03-12T01:20:14;9.02;;;3.45;;
75488;SDS011;64069;46.396;48.102;2023-03-12T01:22:40;8.52;;;3.42;;
75488;SDS011;64069;46.396;48.102;2023-03-12T01:25:06;9.90;;;3.53;;
75488;SDS011;64069;46.396;48.102;2023-03-12T01:27:32;11.20;;;3.63;;
75488;SDS011;64069;46.396;48.102;2023-03-12T01:29:58;8.25;;;3.08;;
75488;SDS011;64069;46.396;48.102;2023-03-12T01:32:24;7.72;;;3.55;;
75488;SDS011;64069;46.396;48.102;2023-03-12T01:34:50;12.93;;;4.10;;
75488;SDS011;64069;46.396;48.102;2023-03-12T01:37:16;8.88;;;3.78;;
75488;SDS011;64069;46.396;48.102;2023-03-12T01:39:42;10.23;;;3.47;;
75488;SDS011;64069;46.396;48.102;2023-03-12T01:42:07;10.27;;;3.90;;
75488;SDS011;64069;46.396;48.102;2023-03-12T01:47:20;10.05;;;3.67;;
75488;SDS011;64069;46.396;48.102;2023-03-12T01:49:47;11.45;;;3.63;;
75488;SDS011;64069;46.396;48.102;2023-03-12T01:52:24;9.93;;;3.58;;
75488;SDS011;64069;46.396;48.102;2023-03-12T01:55:02;11.20;;;4.13;;
75488;SDS011;64069;46.396;48.102;2023-03-12T02:00:11;12.82;;;4.25;;
75488;SDS011;64069;46.396;48.102;2023-03-12T02:02:41;8.38;;;3.67;;
75488;SDS011;64069;46.396;48.102;2023-03-12T02:05:19;9.95;;;3.55;;
75488;SDS011;64069;46.396;48.102;2023-03-12T02:07:53;8.50;;;3.40;;
75488;SDS011;64069;46.396;48.102;2023-03-12T02:10:20;7.32;;;3.42;;
75488;SDS011;64069;46.396;48.102;2023-03-12T02:12:46;8.48;;;3.22;;
75488;SDS011;64069;46.396;48.102;2023-03-12T02:15:13;10.15;;;4.10;;
75488;SDS011;64069;46.396;48.102;2023-03-12T02:17:39;8.98;;;3.55;;
75488;SDS011;64069;46.396;48.102;2023-03-12T02:20:23;8.25;;;3.13;;
75488;SDS011;64069;46.396;48.102;2023-03-12T02:25:47;10.55;;;3.05;;
75488;SDS011;64069;46.396;48.102;2023-03-12T02:28:17;7.03;;;2.85;;
75488;SDS011;64069;46.396;48.102;2023-03-12T02:30:46;7.75;;;3.30;;
75488;SDS011;64069;46.396;48.102;2023-03-12T02:33:15;10.85;;;3.28;;
75488;SDS011;64069;46.396;48.102;2023-03-12T02:35:41;7.45;;;3.28;;
75488;SDS011;64069;46.396;48.102;2023-03-12T02:41:01;6.95;;;3.03;;
75488;SDS011;64069;46.396;48.102;2023-03-12T02:43:33;10.60;;;3.20;;
75488;SDS011;64069;46.396;48.102;2023-03-12T02:45:58;6.63;;;2.47;;
75488;SDS011;64069;46.396;48.102;2023-03-12T02:48:24;7.85;;;3.47;;
75488;SDS011;64069;46.396;48.102;2023-03-12T02:50:51;6.88;;;2.78;;
75488;SDS011;64069;46.396;48.102;2023-03-12T02:53:17;14.43;;;3.20;;
75488;SDS011;64069;46.396;48.102;2023-03-12T02:55:43;9.35;;;3.22;;
75488;SDS011;64069;46.396;48.102;2023-03-12T02:58:09;8.63;;;2.90;;
75488;SDS011;64069;46.396;48.102;2023-03-12T03:00:35;7.80;;;3.47;;
75488;SDS011;64069;46.396;48.102;2023-03-12T03:03:02;7.35;;;2.45;;
75488;SDS011;64069;46.396;48.102;2023-03-12T03:05:28;7.05;;;2.95;;
75488;SDS011;64069;46.396;48.102;2023-03-12T03:07:54;7.78;;;3.17;;
75488;SDS011;64069;46.396;48.102;2023-03-12T03:10:20;8.65;;;3.55;;
75488;SDS011;64069;46.396;48.102;2023-03-12T03:12:46;8.68;;;2.83;;
75488;SDS011;64069;46.396;48.102;2023-03-12T03:15:12;6.88;;;2.63;;
75488;SDS011;64069;46.396;48.102;2023-03-12T03:17:39;11.90;;;2.83;;
75488;SDS011;64069;46.396;48.102;2023-03-12T03:20:06;7.32;;;2.90;;
75488;SDS011;64069;46.396;48.102;2023-03-12T03:22:35;8.13;;;3.00;;
75488;SDS011;64069;46.396;48.102;2023-03-12T03:25:03;6.47;;;2.78;;
75488;SDS011;64069;46.396;48.102;2023-03-12T03:27:30;6.38;;;2.78;;
75488;SDS011;64069;46.396;48.102;2023-03-12T03:29:57;6.57;;;2.85;;
75488;SDS011;64069;46.396;48.102;2023-03-12T03:32:23;8.65;;;2.75;;
75488;SDS011;64069;46.396;48.102;2023-03-12T03:34:49;7.35;;;3.00;;
75488;SDS011;64069;46.396;48.102;2023-03-12T03:37:16;6.60;;;2.80;;
75488;SDS011;64069;46.396;48.102;2023-03-12T03:39:42;6.32;;;2.45;;
75488;SDS011;64069;46.396;48.102;2023-03-12T03:42:08;4.53;;;2.38;;
75488;SDS011;64069;46.396;48.102;2023-03-12T03:44:34;8.07;;;3.10;;
75488;SDS011;64069;46.396;48.102;2023-03-12T03:47:01;7.88;;;3.00;;
75488;SDS011;64069;46.396;48.102;2023-03-12T03:49:27;6.45;;;2.40;;
75488;SDS011;64069;46.396;48.102;2023-03-12T03:51:53;6.45;;;2.05;;
75488;SDS011;64069;46.396;48.102;2023-03-12T03:54:26;7.28;;;2.85;;
75488;SDS011;64069;46.396;48.102;2023-03-12T03:56:54;6.53;;;2.50;;
75488;SDS011;64069;46.396;48.102;2023-03-12T03:59:20;5.53;;;2.10;;
75488;SDS011;64069;46.396;48.102;2023-03-12T04:01:50;5.85;;;2.75;;
75488;SDS011;64069;46.396;48.102;2023-03-12T04:04:16;5.85;;;2.20;;
75488;SDS011;64069;46.396;48.102;2023-03-12T04:06:42;5.75;;;2.42;;
75488;SDS011;64069;46.396;48.102;2023-03-12T04:09:09;7.85;;;2.65;;
75488;SDS011;64069;46.396;48.102;2023-03-12T04:11:37;5.97;;;2.33;;
75488;SDS011;64069;46.396;48.102;2023-03-12T04:14:05;6.05;;;2.78;;
75488;SDS011;64069;46.396;48.102;2023-03-12T04:16:38;7.93;;;2.15;;
75488;SDS011;64069;46.396;48.102;2023-03-12T04:19:04;7.75;;;2.97;;
75488;SDS011;64069;46.396;48.102;2023-03-12T04:21:30;6.45;;;2.58;;
75488;SDS011;64069;46.396;48.102;2023-03-12T04:23:56;4.75;;;2.58;;
75488;SDS011;64069;46.396;48.102;2023-03-12T04:26:27;5.53;;;2.22;;
75488;SDS011;64069;46.396;48.102;2023-03-12T04:28:54;6.35;;;2.03;;
75488;SDS011;64069;46.396;48.102;2023-03-12T04:31:20;7.05;;;2.67;;
75488;SDS011;64069;46.396;48.102;2023-03-12T04:33:49;6.88;;;2.28;;
75488;SDS011;64069;46.396;48.102;2023-03-12T04:36:17;9.35;;;2.78;;
75488;SDS011;64069;46.396;48.102;2023-03-12T04:38:46;5.72;;;2.75;;
75488;SDS011;64069;46.396;48.102;2023-03-12T04:41:18;6.13;;;2.40;;
75488;SDS011;64069;46.396;48.102;2023-03-12T04:43:49;7.50;;;2.03;;
75488;SDS011;64069;46.396;48.102;2023-03-12T04:46:16;6.43;;;2.25;;
75488;SDS011;64069;46.396;48.102;2023-03-12T04:48:43;5.10;;;2.15;;
75488;SDS011;64069;46.396;48.102;2023-03-12T04:51:10;7.38;;;2.28;;
75488;SDS011;64069;46.396;48.102;2023-03-12T04:53:36;7.13;;;1.95;;
75488;SDS011;64069;46.396;48.102;2023-03-12T04:56:07;6.78;;;2.13;;
75488;SDS011;64069;46.396;48.102;2023-03-12T04:58:34;9.07;;;2.72;;
75488;SDS011;64069;46.396;48.102;2023-03-12T05:01:00;6.53;;;2.80;;
75488;SDS011;64069;46.396;48.102;2023-03-12T05:03:26;5.85;;;2.10;;
75488;SDS011;64069;46.396;48.102;2023-03-12T05:05:53;6.78;;;1.90;;
75488;SDS011;64069;46.396;48.102;2023-03-12T05:08:19;5.25;;;2.13;;
75488;SDS011;64069;46.396;48.102;2023-03-12T05:10:45;5.97;;;2.28;;
75488;SDS011;64069;46.396;48.102;2023-03-12T05:13:17;4.07;;;2.03;;
75488;SDS011;64069;46.396;48.102;2023-03-12T05:15:44;5.97;;;2.20;;
75488;SDS011;64069;46.396;48.102;2023-03-12T05:18:12;9.10;;;2.60;;
75488;SDS011;64069;46.396;48.102;2023-03-12T05:20:38;8.90;;;2.20;;
75488;SDS011;64069;46.396;48.102;2023-03-12T05:23:05;6.25;;;2.50;;
75488;SDS011;64069;46.396;48.102;2023-03-12T05:25:31;6.97;;;2.88;;
75488;SDS011;64069;46.396;48.102;2023-03-12T05:27:57;10.57;;;4.00;;
75488;SDS011;64069;46.396;48.102;2023-03-12T05:30:23;6.93;;;3.13;;
75488;SDS011;64069;46.396;48.102;2023-03-12T05:32:50;7.47;;;3.33;;
75488;SDS011;64069;46.396;48.102;2023-03-12T05:35:16;9.02;;;4.05;;
75488;SDS011;64069;46.396;48.102;2023-03-12T05:37:44;9.80;;;3.92;;
75488;SDS011;64069;46.396;48.102;2023-03-12T05:40:10;10.60;;;3.92;;
75488;SDS011;64069;46.396;48.102;2023-03-12T05:42:37;13.18;;;4.50;;
75488;SDS011;64069;46.396;48.102;2023-03-12T05:45:05;10.50;;;4.75;;
75488;SDS011;64069;46.396;48.102;2023-03-12T05:47:32;11.23;;;4.40;;
75488;SDS011;64069;46.396;48.102;2023-03-12T05:49:58;9.23;;;4.82;;
75488;SDS011;64069;46.396;48.102;2023-03-12T05:52:24;10.63;;;4.10;;
75488;SDS011;64069;46.396;48.102;2023-03-12T05:54:51;15.00;;;3.33;;
75488;SDS011;64069;46.396;48.102;2023-03-12T05:57:17;9.73;;;2.80;;
75488;SDS011;64069;46.396;48.102;2023-03-12T05:59:43;8.82;;;3.22;;
75488;SDS011;64069;46.396;48.102;2023-03-12T06:02:09;10.10;;;2.65;;
75488;SDS011;64069;46.396;48.102;2023-03-12T06:04:35;9.25;;;2.90;;
75488;SDS011;64069;46.396;48.102;2023-03-12T06:07:02;10.98;;;3.25;;
75488;SDS011;64069;46.396;48.102;2023-03-12T06:09:29;12.68;;;2.83;;
75488;SDS011;64069;46.396;48.102;2023-03-12T06:11:55;7.05;;;2.67;;
75488;SDS011;64069;46.396;48.102;2023-03-12T06:14:21;16.73;;;4.20;;
75488;SDS011;64069;46.396;48.102;2023-03-12T06:16:48;16.40;;;4.03;;
75488;SDS011;64069;46.396;48.102;2023-03-12T06:19:14;11.60;;;3.60;;
75488;SDS011;64069;46.396;48.102;2023-03-12T06:21:42;12.23;;;3.63;;
75488;SDS011;64069;46.396;48.102;2023-03-12T06:24:09;8.63;;;3.38;;
75488;SDS011;64069;46.396;48.102;2023-03-12T06:26:48;10.50;;;3.85;;
75488;SDS011;64069;46.396;48.102;2023-03-12T06:29:14;13.30;;;4.05;;
75488;SDS011;64069;46.396;48.102;2023-03-12T06:31:39;21.35;;;4.53;;
75488;SDS011;64069;46.396;48.102;2023-03-12T06:34:06;34.25;;;5.45;;
75488;SDS011;64069;46.396;48.102;2023-03-12T06:36:32;11.55;;;4.55;;
75488;SDS011;64069;46.396;48.102;2023-03-12T06:38:59;35.08;;;6.20;;
75488;SDS011;64069;46.396;48.102;2023-03-12T06:41:24;15.90;;;5.32;;
75488;SDS011;64069;46.396;48.102;2023-03-12T06:43:51;32.75;;;6.15;;
75488;SDS011;64069;46.396;48.102;2023-03-12T06:46:18;16.40;;;4.57;;
75488;SDS011;64069;46.396;48.102;2023-03-12T06:48:46;66.00;;;8.77;;
75488;SDS011;64069;46.396;48.102;2023-03-12T06:51:13;39.13;;;5.13;;
75488;SDS011;64069;46.396;48.102;2023-03-12T06:53:40;10.68;;;3.65;;
75488;SDS011;64069;46.396;48.102;2023-03-12T06:56:06;22.65;;;5.15;;
75488;SDS011;64069;46.396;48.102;2023-03-12T06:58:32;12.07;;;4.07;;
75488;SDS011;64069;46.396;48.102;2023-03-12T07:00:58;37.45;;;7.07;;
75488;SDS011;64069;46.396;48.102;2023-03-12T07:03:24;71.70;;;9.02;;
75488;SDS011;64069;46.396;48.102;2023-03-12T07:05:50;24.52;;;4.85;;
75488;SDS011;64069;46.396;48.102;2023-03-12T07:08:17;13.55;;;3.85;;
75488;SDS011;64069;46.396;48.102;2023-03-12T07:10:43;13.70;;;4.57;;
75488;SDS011;64069;46.396;48.102;2023-03-12T07:13:10;10.60;;;4.00;;
75488;SDS011;64069;46.396;48.102;2023-03-12T07:15:36;49.78;;;6.70;;
75488;SDS011;64069;46.396;48.102;2023-03-12T07:18:03;19.88;;;9.85;;
75488;SDS011;64069;46.396;48.102;2023-03-12T07:20:30;14.35;;;5.30;;
75488;SDS011;64069;46.396;48.102;2023-03-12T07:22:57;16.02;;;4.63;;
75488;SDS011;64069;46.396;48.102;2023-03-12T07:27:54;22.92;;;4.97;;
75488;SDS011;64069;46.396;48.102;2023-03-12T07:30:20;19.38;;;4.53;;
75488;SDS011;64069;46.396;48.102;2023-03-12T07:32:46;28.90;;;9.20;;
75488;SDS011;64069;46.396;48.102;2023-03-12T07:35:12;24.13;;;4.82;;
75488;SDS011;64069;46.396;48.102;2023-03-12T07:37:38;10.60;;;4.90;;
75488;SDS011;64069;46.396;48.102;2023-03-12T07:40:04;12.68;;;3.63;;
75488;SDS011;64069;46.396;48.102;2023-03-12T07:42:34;21.67;;;7.80;;
75488;SDS011;64069;46.396;48.102;2023-03-12T07:45:00;18.55;;;6.07;;
75488;SDS011;64069;46.396;48.102;2023-03-12T07:47:29;12.75;;;4.53;;
75488;SDS011;64069;46.396;48.102;2023-03-12T07:49:55;18.38;;;7.20;;
75488;SDS011;64069;46.396;48.102;2023-03-12T07:52:21;22.27;;;5.13;;
75488;SDS011;64069;46.396;48.102;2023-03-12T07:54:52;14.55;;;4.00;;
75488;SDS011;64069;46.396;48.102;2023-03-12T07:57:21;46.15;;;7.45;;
75488;SDS011;64069;46.396;48.102;2023-03-12T07:59:47;18.40;;;5.13;;
75488;SDS011;64069;46.396;48.102;2023-03-12T08:02:13;38.00;;;6.53;;
75488;SDS011;64069;46.396;48.102;2023-03-12T08:04:39;12.18;;;4.80;;
75488;SDS011;64069;46.396;48.102;2023-03-12T08:07:05;15.35;;;4.43;;
75488;SDS011;64069;46.396;48.102;2023-03-12T08:09:31;12.85;;;4.68;;
75488;SDS011;64069;46.396;48.102;2023-03-12T08:11:57;30.05;;;5.05;;
75488;SDS011;64069;46.396;48.102;2023-03-12T08:14:24;13.18;;;3.92;;
75488;SDS011;64069;46.396;48.102;2023-03-12T08:16:49;17.02;;;5.95;;
75488;SDS011;64069;46.396;48.102;2023-03-12T08:19:15;12.65;;;4.50;;
75488;SDS011;64069;46.396;48.102;2023-03-12T08:21:45;17.02;;;5.82;;
75488;SDS011;64069;46.396;48.102;2023-03-12T08:24:11;9.68;;;3.83;;
75488;SDS011;64069;46.396;48.102;2023-03-12T08:26:37;37.60;;;5.47;;
75488;SDS011;64069;46.396;48.102;2023-03-12T08:29:03;42.78;;;4.90;;
75488;SDS011;64069;46.396;48.102;2023-03-12T08:31:29;13.48;;;4.03;;
75488;SDS011;64069;46.396;48.102;2023-03-12T08:33:55;14.52;;;3.67;;
75488;SDS011;64069;46.396;48.102;2023-03-12T08:36:21;14.38;;;4.13;;
75488;SDS011;64069;46.396;48.102;2023-03-12T08:38:47;9.80;;;4.40;;
75488;SDS011;64069;46.396;48.102;2023-03-12T08:41:12;15.73;;;4.13;;
75488;SDS011;64069;46.396;48.102;2023-03-12T08:43:40;25.40;;;4.78;;
75488;SDS011;64069;46.396;48.102;2023-03-12T08:46:05;12.57;;;4.03;;
75488;SDS011;64069;46.396;48.102;2023-03-12T08:48:32;12.95;;;3.72;;
75488;SDS011;64069;46.396;48.102;2023-03-12T08:50:58;34.45;;;5.70;;
75488;SDS011;64069;46.396;48.102;2023-03-12T08:53:28;15.45;;;6.50;;
75488;SDS011;64069;46.396;48.102;2023-03-12T08:55:56;30.73;;;5.35;;
75488;SDS011;64069;46.396;48.102;2023-03-12T08:58:23;22.27;;;5.57;;
75488;SDS011;64069;46.396;48.102;2023-03-12T09:00:54;10.45;;;4.07;;
75488;SDS011;64069;46.396;48.102;2023-03-12T09:03:21;9.85;;;3.85;;
75488;SDS011;64069;46.396;48.102;2023-03-12T09:05:48;12.40;;;3.50;;
75488;SDS011;64069;46.396;48.102;2023-03-12T09:08:18;9.05;;;3.72;;
75488;SDS011;64069;46.396;48.102;2023-03-12T09:10:47;24.25;;;3.50;;
75488;SDS011;64069;46.396;48.102;2023-03-12T09:13:19;9.40;;;4.07;;
75488;SDS011;64069;46.396;48.102;2023-03-12T09:15:45;8.63;;;3.20;;
75488;SDS011;64069;46.396;48.102;2023-03-12T09:18:11;15.43;;;6.43;;
75488;SDS011;64069;46.396;48.102;2023-03-12T09:20:37;11.68;;;4.25;;
75488;SDS011;64069;46.396;48.102;2023-03-12T09:23:03;19.80;;;4.35;;
75488;SDS011;64069;46.396;48.102;2023-03-12T09:25:32;11.38;;;3.38;;
75488;SDS011;64069;46.396;48.102;2023-03-12T09:27:58;25.35;;;4.20;;
75488;SDS011;64069;46.396;48.102;2023-03-12T09:30:24;25.33;;;3.97;;
75488;SDS011;64069;46.396;48.102;2023-03-12T09:32:51;11.80;;;4.15;;
75488;SDS011;64069;46.396;48.102;2023-03-12T09:35:17;16.52;;;4.30;;
75488;SDS011;64069;46.396;48.102;2023-03-12T09:37:46;14.98;;;4.20;;
75488;SDS011;64069;46.396;48.102;2023-03-12T09:40:15;9.15;;;3.40;;
75488;SDS011;64069;46.396;48.102;2023-03-12T09:45:21;8.63;;;3.67;;
75488;SDS011;64069;46.396;48.102;2023-03-12T09:48:05;16.33;;;4.28;;
75488;SDS011;64069;46.396;48.102;2023-03-12T09:50:37;16.65;;;5.18;;
75488;SDS011;64069;46.396;48.102;2023-03-12T09:53:26;17.80;;;5.07;;
75488;SDS011;64069;46.396;48.102;2023-03-12T09:55:56;12.20;;;4.25;;
75488;SDS011;64069;46.396;48.102;2023-03-12T10:06:42;8.00;;;3.63;;
75488;SDS011;64069;46.396;48.102;2023-03-12T10:09:25;12.38;;;4.45;;
75488;SDS011;64069;46.396;48.102;2023-03-12T10:15:16;9.88;;;5.03;;
75488;SDS011;64069;46.396;48.102;2023-03-12T10:24:05;16.60;;;4.43;;
75488;SDS011;64069;46.396;48.102;2023-03-12T10:26:54;15.25;;;4.28;;
75488;SDS011;64069;46.396;48.102;2023-03-12T10:29:22;12.15;;;4.70;;
75488;SDS011;64069;46.396;48.102;2023-03-12T10:34:39;7.97;;;3.25;;
75488;SDS011;64069;46.396;48.102;2023-03-12T10:39:54;12.23;;;4.00;;
75488;SDS011;64069;46.396;48.102;2023-03-12T10:42:21;12.27;;;4.95;;
75488;SDS011;64069;46.396;48.102;2023-03-12T10:44:50;12.57;;;4.55;;
75488;SDS011;64069;46.396;48.102;2023-03-12T10:47:41;14.70;;;4.40;;
75488;SDS011;64069;46.396;48.102;2023-03-12T10:50:19;15.13;;;5.53;;
75488;SDS011;64069;46.396;48.102;2023-03-12T10:52:47;16.23;;;5.30;;
75488;SDS011;64069;46.396;48.102;2023-03-12T10:55:19;11.70;;;4.03;;
75488;SDS011;64069;46.396;48.102;2023-03-12T10:57:58;9.48;;;4.47;;
75488;SDS011;64069;46.396;48.102;2023-03-12T11:00:25;15.82;;;4.80;;
75488;SDS011;64069;46.396;48.102;2023-03-12T11:02:55;19.10;;;4.60;;
75488;SDS011;64069;46.396;48.102;2023-03-12T11:07:55;13.82;;;4.60;;
75488;SDS011;64069;46.396;48.102;2023-03-12T11:10:43;21.40;;;6.00;;
75488;SDS011;64069;46.396;48.102;2023-03-12T11:16:00;20.85;;;4.05;;
75488;SDS011;64069;46.396;48.102;2023-03-12T11:18:36;13.52;;;3.33;;
75488;SDS011;64069;46.396;48.102;2023-03-12T11:23:39;8.90;;;3.17;;
75488;SDS011;64069;46.396;48.102;2023-03-12T11:26:13;18.83;;;4.53;;
75488;SDS011;64069;46.396;48.102;2023-03-12T11:28:55;13.60;;;4.43;;
75488;SDS011;64069;46.396;48.102;2023-03-12T11:34:26;15.13;;;3.22;;
75488;SDS011;64069;46.396;48.102;2023-03-12T11:37:05;13.65;;;3.20;;
75488;SDS011;64069;46.396;48.102;2023-03-12T11:50:55;12.45;;;3.47;;
75488;SDS011;64069;46.396;48.102;2023-03-12T11:56:47;21.73;;;4.90;;
75488;SDS011;64069;46.396;48.102;2023-03-12T12:05:26;30.92;;;5.28;;
75488;SDS011;64069;46.396;48.102;2023-03-12T12:08:15;30.38;;;5.60;;
75488;SDS011;64069;46.396;48.102;2023-03-12T12:13:44;27.70;;;4.60;;
75488;SDS011;64069;46.396;48.102;2023-03-12T12:16:25;34.33;;;4.97;;
75488;SDS011;64069;46.396;48.102;2023-03-12T12:24:37;34.28;;;5.43;;
75488;SDS011;64069;46.396;48.102;2023-03-12T12:27:35;32.10;;;4.55;;
75488;SDS011;64069;46.396;48.102;2023-03-12T12:30:21;29.33;;;5.05;;
75488;SDS011;64069;46.396;48.102;2023-03-12T12:35:58;31.60;;;5.18;;
75488;SDS011;64069;46.396;48.102;2023-03-12T12:38:38;40.85;;;6.10;;
75488;SDS011;64069;46.396;48.102;2023-03-12T12:43:50;45.90;;;7.20;;
75488;SDS011;64069;46.396;48.102;2023-03-12T12:46:23;30.85;;;7.65;;
75488;SDS011;64069;46.396;48.102;2023-03-12T12:49:00;34.75;;;5.63;;
75488;SDS011;64069;46.396;48.102;2023-03-12T12:51:38;31.17;;;5.22;;
75488;SDS011;64069;46.396;48.102;2023-03-12T13:02:27;30.75;;;5.45;;
75488;SDS011;64069;46.396;48.102;2023-03-12T13:04:58;67.75;;;8.60;;
75488;SDS011;64069;46.396;48.102;2023-03-12T13:09:52;58.05;;;9.65;;
75488;SDS011;64069;46.396;48.102;2023-03-12T13:20:21;51.97;;;8.13;;
75488;SDS011;64069;46.396;48.102;2023-03-12T13:33:56;64.55;;;8.02;;
75488;SDS011;64069;46.396;48.102;2023-03-12T13:36:56;54.45;;;8.10;;
75488;SDS011;64069;46.396;48.102;2023-03-12T13:39:34;63.75;;;7.13;;
75488;SDS011;64069;46.396;48.102;2023-03-12T13:42:25;65.03;;;8.25;;
75488;SDS011;64069;46.396;48.102;2023-03-12T13:44:47;84.35;;;10.00;;
75488;SDS011;64069;46.396;48.102;2023-03-12T13:52:25;103.50;;;11.05;;
75488;SDS011;64069;46.396;48.102;2023-03-12T13:54:56;104.50;;;11.23;;
75488;SDS011;64069;46.396;48.102;2023-03-12T13:57:50;94.20;;;12.03;;
75488;SDS011;64069;46.396;48.102;2023-03-12T14:00:27;87.72;;;11.90;;
75488;SDS011;64069;46.396;48.102;2023-03-12T14:08:32;119.40;;;14.30;;
75488;SDS011;64069;46.396;48.102;2023-03-12T14:17:13;110.43;;;12.55;;
75488;SDS011;64069;46.396;48.102;2023-03-12T14:19:50;114.93;;;13.80;;
75488;SDS011;64069;46.396;48.102;2023-03-12T14:22:37;94.68;;;12.80;;
75488;SDS011;64069;46.396;48.102;2023-03-12T14:27:54;122.35;;;14.55;;
75488;SDS011;64069;46.396;48.102;2023-03-12T14:30:21;105.07;;;12.52;;
75488;SDS011;64069;46.396;48.102;2023-03-12T14:32:58;104.13;;;12.43;;
75488;SDS011;64069;46.396;48.102;2023-03-12T14:36:29;107.28;;;12.40;;
75488;SDS011;64069;46.396;48.102;2023-03-12T14:38:31;102.40;;;12.63;;
75488;SDS011;64069;46.396;48.102;2023-03-12T14:41:21;107.53;;;11.55;;
75488;SDS011;64069;46.396;48.102;2023-03-12T14:43:56;76.28;;;9.70;;
75488;SDS011;64069;46.396;48.102;2023-03-12T14:46:29;96.10;;;11.10;;
75488;SDS011;64069;46.396;48.102;2023-03-12T14:48:55;86.38;;;10.77;;
75488;SDS011;64069;46.396;48.102;2023-03-12T14:51:27;76.45;;;10.55;;
75488;SDS011;64069;46.396;48.102;2023-03-12T14:53:54;64.93;;;8.80;;
75488;SDS011;64069;46.396;48.102;2023-03-12T14:56:22;62.83;;;7.40;;
75488;SDS011;64069;46.396;48.102;2023-03-12T14:58:52;68.43;;;8.35;;
75488;SDS011;64069;46.396;48.102;2023-03-12T15:01:22;73.72;;;8.90;;
75488;SDS011;64069;46.396;48.102;2023-03-12T15:03:57;55.53;;;8.43;;
75488;SDS011;64069;46.396;48.102;2023-03-12T15:08:59;80.30;;;9.75;;
75488;SDS011;64069;46.396;48.102;2023-03-12T15:11:29;75.00;;;10.93;;
75488;SDS011;64069;46.396;48.102;2023-03-12T15:14:01;72.70;;;9.95;;
75488;SDS011;64069;46.396;48.102;2023-03-12T15:16:37;81.30;;;12.85;;
75488;SDS011;64069;46.396;48.102;2023-03-12T15:19:04;75.93;;;11.73;;
75488;SDS011;64069;46.396;48.102;2023-03-12T15:21:37;67.60;;;12.02;;
75488;SDS011;64069;46.396;48.102;2023-03-12T15:24:04;64.07;;;11.40;;
75488;SDS011;64069;46.396;48.102;2023-03-12T15:26:31;79.50;;;11.52;;
75488;SDS011;64069;46.396;48.102;2023-03-12T15:31:51;70.22;;;10.00;;
75488;SDS011;64069;46.396;48.102;2023-03-12T15:34:31;71.50;;;8.45;;
75488;SDS011;64069;46.396;48.102;2023-03-12T15:37:03;60.42;;;7.43;;
75488;SDS011;64069;46.396;48.102;2023-03-12T15:39:46;55.65;;;6.93;;
75488;SDS011;64069;46.396;48.102;2023-03-12T15:42:22;48.70;;;7.00;;
75488;SDS011;64069;46.396;48.102;2023-03-12T15:44:57;65.53;;;7.63;;
75488;SDS011;64069;46.396;48.102;2023-03-12T15:47:28;56.63;;;7.68;;
75488;SDS011;64069;46.396;48.102;2023-03-12T15:50:06;76.45;;;9.30;;
75488;SDS011;64069;46.396;48.102;2023-03-12T15:52:37;54.28;;;6.35;;
75488;SDS011;64069;46.396;48.102;2023-03-12T15:57:53;75.45;;;8.50;;
75488;SDS011;64069;46.396;48.102;2023-03-12T16:05:29;70.82;;;7.22;;
75488;SDS011;64069;46.396;48.102;2023-03-12T16:08:08;71.05;;;8.02;;
75488;SDS011;64069;46.396;48.102;2023-03-12T16:10:51;58.70;;;8.85;;
75488;SDS011;64069;46.396;48.102;2023-03-12T16:13:18;70.05;;;10.70;;
75488;SDS011;64069;46.396;48.102;2023-03-12T16:15:47;80.10;;;8.50;;
75488;SDS011;64069;46.396;48.102;2023-03-12T16:18:14;74.35;;;9.27;;
75488;SDS011;64069;46.396;48.102;2023-03-12T16:20:42;83.63;;;7.75;;
75488;SDS011;64069;46.396;48.102;2023-03-12T16:23:08;65.78;;;8.82;;
75488;SDS011;64069;46.396;48.102;2023-03-12T16:25:38;68.28;;;8.25;;
75488;SDS011;64069;46.396;48.102;2023-03-12T16:28:12;74.97;;;9.68;;
75488;SDS011;64069;46.396;48.102;2023-03-12T16:33:06;85.40;;;8.10;;
75488;SDS011;64069;46.396;48.102;2023-03-12T16:35:32;64.57;;;8.40;;
75488;SDS011;64069;46.396;48.102;2023-03-12T16:38:02;70.20;;;7.55;;
75488;SDS011;64069;46.396;48.102;2023-03-12T16:40:29;72.63;;;7.25;;
75488;SDS011;64069;46.396;48.102;2023-03-12T16:43:02;62.63;;;7.72;;
75488;SDS011;64069;46.396;48.102;2023-03-12T16:45:35;67.03;;;8.70;;
75488;SDS011;64069;46.396;48.102;2023-03-12T16:48:02;55.78;;;8.15;;
75488;SDS011;64069;46.396;48.102;2023-03-12T16:50:33;63.13;;;8.88;;
75488;SDS011;64069;46.396;48.102;2023-03-12T16:52:58;67.60;;;8.57;;
75488;SDS011;64069;46.396;48.102;2023-03-12T16:55:39;84.25;;;8.85;;
75488;SDS011;64069;46.396;48.102;2023-03-12T16:58:21;65.35;;;7.90;;
75488;SDS011;64069;46.396;48.102;2023-03-12T17:00:49;63.38;;;8.75;;
75488;SDS011;64069;46.396;48.102;2023-03-12T17:03:30;57.53;;;7.70;;
75488;SDS011;64069;46.396;48.102;2023-03-12T17:05:57;66.20;;;8.93;;
75488;SDS011;64069;46.396;48.102;2023-03-12T17:08:23;60.80;;;8.25;;
75488;SDS011;64069;46.396;48.102;2023-03-12T17:10:49;69.80;;;9.23;;